Martos, Spain
Current Conditions -  °F | °C
As of 5:00 PM on Wednesday 28 Jan 2015 (Local Time) from LEGR Reporting Station
Clear Clear  
Wind Chill: 17°   Ceiling: Unl
Heat Index: 17°   Visibility: 6mi
Dew Point:   Wind: 15mph
Humidity: 32%   Direction: 280°W
Pressure: 30.18"   Gusts: NA
Location:  37.72°N, 3.97°W
Report Text: LEGR 281600Z 28013KT CAVOK 17/M00 Q1022
Loading
Personal Weather Stations






























Interactive Weather Map New forecast layout! Learn more

10-Day Weather Forecast

Advertisements
Track Severe Weather on mobile